Terminal Aerodrome Forecast
Issued by NWS

Home | Current Version | Previous Version | Text Only | Print | Product List | Glossary On
Versions: 1 2 3 4 5 6 7 8 9 10 11 12 13
000
FTUS44 KOUN 170520
TAFHBR
TAF
KHBR 170520Z 1706/1806 12010KT P6SM SKC
     FM171400 07012KT 5SM -RA SCT015 BKN025
     FM171900 03011KT P6SM BKN015 OVC025
     FM180100 08006KT P6SM BKN050=

USA.gov is the U.S. government's official web portal to all federal, state and local government web resources and services.